| Date | Time | Temp. (oF) | Dew Point (oF) | Rel. Hum. (%) | Press. (in.) | Wind Dir. | Wind Speed (mph) | Hourly Rainfall (in.) |
|
|---|---|---|---|---|---|---|---|---|---|
| 1 | 05/02 | 00:00 | 66 | 50 | 58 | 30.06 | S | 0 | 0.00 |
| 2 | 05/01 | 23:00 | 69 | 48 | 49 | 30.07 | S | 2 | 0.00 |
| 3 | 05/01 | 22:00 | 71 | 47 | 44 | 30.06 | S | 2 | 0.00 |
| 4 | 05/01 | 21:00 | 72 | 47 | 42 | 30.05 | SSE | 3 | 0.00 |
| 5 | 05/01 | 20:00 | 76 | 48 | 38 | 30.05 | SSE | 2 | 0.00 |
| 6 | 05/01 | 19:00 | 79 | 47 | 34 | 30.02 | S | 6 | 0.00 |
| 7 | 05/01 | 18:00 | 82 | 48 | 32 | 30.01 | S | 7 | 0.00 |
| 8 | 05/01 | 17:00 | 84 | 47 | 29 | 30.02 | SSE | 6 | 0.00 |
| 9 | 05/01 | 16:00 | 84 | 45 | 27 | 30.04 | NNE | 2 | 0.00 |
| 10 | 05/01 | 15:00 | 83 | 44 | 26 | 30.07 | SE | 7 | 0.00 |
| 11 | 05/01 | 14:00 | 82 | 45 | 28 | 30.08 | S | 4 | 0.00 |
| 12 | 05/01 | 13:00 | 80 | 48 | 33 | 30.11 | S | 4 | 0.00 |
| 13 | 05/01 | 12:00 | 76 | 53 | 46 | 30.14 | S | 1 | 0.00 |
| 14 | 05/01 | 11:00 | 72 | 53 | 52 | 30.15 | SSW | 2 | 0.00 |
| 15 | 05/01 | 10:00 | 66 | 52 | 62 | 30.16 | SSW | 1 | 0.00 |
| 16 | 05/01 | 09:00 | 60 | 51 | 74 | 30.17 | SSE | 2 | 0.00 |
| 17 | 05/01 | 08:00 | 55 | 49 | 82 | 30.18 | WSW | 1 | 0.00 |
| 18 | 05/01 | 07:00 | 49 | 46 | 91 | 30.18 | W | 0 | 0.00 |
| 19 | 05/01 | 06:00 | 49 | 44 | 86 | 30.17 | W | 0 | 0.00 |
| 20 | 05/01 | 05:00 | 50 | 45 | 85 | 30.17 | WSW | 0 | 0.00 |
| 21 | 05/01 | 04:00 | 51 | 45 | 82 | 30.17 | SSE | 0 | 0.00 |
| 22 | 05/01 | 03:00 | 54 | 46 | 77 | 30.17 | SSE | 0 | 0.00 |
| 23 | 05/01 | 02:00 | 55 | 45 | 71 | 30.18 | SSE | 0 | 0.00 |
| 24 | 05/01 | 01:00 | 59 | 46 | 64 | 30.19 | SSE | 0 | 0.00 |